createdAt,value
2018-07-07T00:00:30.486Z,19.37
2018-07-07T00:01:30.479Z,19.20
2018-07-07T00:02:30.466Z,19.22
2018-07-07T00:03:30.456Z,19.22
2018-07-07T00:04:30.436Z,19.17
2018-07-07T00:05:30.427Z,19.26
2018-07-07T00:06:30.417Z,19.19
2018-07-07T00:07:30.408Z,19.12
2018-07-07T00:08:30.385Z,19.07
2018-07-07T00:09:30.379Z,19.09
2018-07-07T00:10:30.361Z,19.16
2018-07-07T00:11:30.357Z,19.07
2018-07-07T00:12:30.345Z,19.08
2018-07-07T00:13:30.326Z,19.12
2018-07-07T00:14:30.312Z,19.16
2018-07-07T00:15:30.305Z,19.13
2018-07-07T00:16:30.299Z,19.08
2018-07-07T00:17:30.280Z,19.01
2018-07-07T00:18:30.269Z,19.12
2018-07-07T00:19:30.251Z,19.07
2018-07-07T00:20:30.238Z,19.07
2018-07-07T00:21:30.225Z,19.07
2018-07-07T00:22:30.281Z,19.13
2018-07-07T00:23:30.203Z,19.13
2018-07-07T00:24:30.186Z,19.09
2018-07-07T00:25:30.176Z,19.08
2018-07-07T00:26:30.164Z,19.07
2018-07-07T00:27:30.157Z,19.07
2018-07-07T00:28:30.146Z,19.05
2018-07-07T00:29:30.125Z,18.94
2018-07-07T00:30:30.118Z,18.89
2018-07-07T00:31:30.100Z,18.88
2018-07-07T00:32:30.085Z,18.86
2018-07-07T00:33:30.074Z,18.88
2018-07-07T00:34:30.076Z,18.75
2018-07-07T00:35:30.057Z,18.75
2018-07-07T00:36:30.037Z,18.76
2018-07-07T00:37:30.026Z,18.75
2018-07-07T00:38:30.017Z,18.85
2018-07-07T00:39:29.997Z,18.85
2018-07-07T00:40:29.986Z,18.83
2018-07-07T00:41:29.975Z,18.75
2018-07-07T00:42:29.966Z,18.76
2018-07-07T00:43:29.957Z,18.83
2018-07-07T00:44:29.934Z,18.70
2018-07-07T00:45:29.927Z,18.67
2018-07-07T00:46:29.915Z,18.61
2018-07-07T00:47:29.902Z,18.58
2018-07-07T00:48:29.886Z,18.60
2018-07-07T00:49:29.874Z,18.60
2018-07-07T00:50:29.862Z,18.63
2018-07-07T00:51:29.850Z,18.58
2018-07-07T00:52:29.836Z,18.68
2018-07-07T00:53:29.828Z,18.64
2018-07-07T00:54:29.886Z,18.63
2018-07-07T00:55:29.797Z,18.52
2018-07-07T00:56:29.790Z,18.58
2018-07-07T00:57:29.778Z,18.63
2018-07-07T00:58:29.760Z,18.66
2018-07-07T00:59:29.750Z,18.68
2018-07-07T01:00:29.737Z,18.64
2018-07-07T01:01:29.719Z,18.68
2018-07-07T01:02:29.707Z,18.66
2018-07-07T01:03:29.697Z,18.61
2018-07-07T01:04:29.686Z,18.63
2018-07-07T01:05:29.670Z,18.52
2018-07-07T01:06:29.658Z,18.56
2018-07-07T01:07:29.646Z,18.43
2018-07-07T01:08:29.636Z,18.43
2018-07-07T01:09:29.706Z,18.45
2018-07-07T01:10:29.607Z,18.43
2018-07-07T01:11:29.592Z,18.39
2018-07-07T01:12:29.585Z,18.38
2018-07-07T01:13:29.566Z,18.38
2018-07-07T01:14:29.553Z,18.36
2018-07-07T01:15:29.559Z,18.38
2018-07-07T01:16:29.533Z,18.42
2018-07-07T01:17:29.517Z,18.42
2018-07-07T01:18:29.505Z,18.45
2018-07-07T01:19:29.492Z,18.43
2018-07-07T01:20:29.489Z,18.45
2018-07-07T01:21:29.467Z,18.43
2018-07-07T01:22:29.451Z,18.38
2018-07-07T01:23:29.436Z,18.33
2018-07-07T01:24:29.426Z,18.43
2018-07-07T01:25:29.415Z,18.31
2018-07-07T01:26:29.398Z,18.41
2018-07-07T01:27:29.385Z,18.39
2018-07-07T01:28:29.371Z,18.36
2018-07-07T01:29:29.361Z,18.42
2018-07-07T01:30:29.356Z,18.42
2018-07-07T01:31:29.336Z,18.45
2018-07-07T01:32:29.320Z,18.45
2018-07-07T01:33:29.305Z,18.46
2018-07-07T01:34:29.308Z,18.43
2018-07-07T01:35:29.286Z,18.36
2018-07-07T01:36:29.276Z,18.38
2018-07-07T01:37:29.255Z,18.41
2018-07-07T01:38:29.246Z,18.33
2018-07-07T01:39:29.238Z,18.34
2018-07-07T01:40:29.226Z,18.33
2018-07-07T01:41:29.207Z,18.30
2018-07-07T01:42:29.197Z,18.31
2018-07-07T01:43:29.187Z,18.26
2018-07-07T01:44:29.167Z,18.23
2018-07-07T01:45:29.152Z,18.26
2018-07-07T01:46:29.140Z,18.20
2018-07-07T01:47:29.127Z,18.23
2018-07-07T01:48:29.114Z,18.24
2018-07-07T01:49:29.104Z,18.33
2018-07-07T01:50:29.096Z,18.33
2018-07-07T01:51:29.077Z,18.31
2018-07-07T01:52:29.068Z,18.27
2018-07-07T01:53:29.053Z,18.39
2018-07-07T01:54:29.037Z,18.28
2018-07-07T01:55:29.028Z,18.41
2018-07-07T01:56:29.017Z,18.33
2018-07-07T01:57:28.995Z,18.36
2018-07-07T01:58:28.986Z,18.31
2018-07-07T01:59:28.975Z,18.28
2018-07-07T02:00:28.984Z,18.33
2018-07-07T02:01:28.946Z,18.27
2018-07-07T02:02:28.936Z,18.28
2018-07-07T02:03:28.929Z,18.26
2018-07-07T02:04:28.906Z,18.26
2018-07-07T02:05:28.899Z,18.24
2018-07-07T02:06:28.885Z,18.23
2018-07-07T02:07:28.924Z,18.24
2018-07-07T02:08:28.857Z,18.24
2018-07-07T02:09:28.840Z,18.26
2018-07-07T02:10:28.852Z,18.33
2018-07-07T02:11:28.966Z,18.21
2018-07-07T02:12:28.799Z,18.26
2018-07-07T02:13:28.877Z,18.26
2018-07-07T02:14:28.775Z,18.26
2018-07-07T02:15:28.767Z,18.26
2018-07-07T02:16:28.757Z,18.23
2018-07-07T02:17:28.743Z,18.20
2018-07-07T02:18:28.727Z,18.23
2018-07-07T02:19:28.710Z,18.20
2018-07-07T02:20:28.695Z,18.23
2018-07-07T02:21:28.686Z,18.17
2018-07-07T02:22:28.672Z,18.20
2018-07-07T02:23:28.661Z,18.26
2018-07-07T02:24:28.647Z,18.17
2018-07-07T02:25:28.634Z,18.24
2018-07-07T02:26:28.616Z,18.15
2018-07-07T02:27:28.607Z,18.20
2018-07-07T02:28:28.595Z,18.23
2018-07-07T02:29:28.581Z,18.20
2018-07-07T02:30:28.566Z,18.13
2018-07-07T02:31:28.556Z,18.23
2018-07-07T02:32:28.547Z,18.23
2018-07-07T02:33:28.525Z,18.23
2018-07-07T02:34:28.517Z,18.18
2018-07-07T02:35:28.500Z,18.26
2018-07-07T02:36:28.488Z,18.23
2018-07-07T02:37:28.474Z,18.18
2018-07-07T02:38:28.464Z,18.09
2018-07-07T02:39:28.447Z,18.12
2018-07-07T02:40:28.436Z,18.12
2018-07-07T02:41:28.431Z,18.13
2018-07-07T02:42:28.407Z,18.13
2018-07-07T02:43:28.397Z,18.12
2018-07-07T02:44:28.381Z,18.18
2018-07-07T02:45:28.368Z,18.12
2018-07-07T02:46:28.361Z,18.11
2018-07-07T02:47:28.345Z,18.13
2018-07-07T02:48:28.328Z,18.15
2018-07-07T02:49:28.317Z,18.02
2018-07-07T02:50:28.305Z,17.90
2018-07-07T02:51:28.292Z,17.91
2018-07-07T02:52:28.284Z,18.01
2018-07-07T02:53:28.266Z,17.90
2018-07-07T02:54:28.255Z,17.79
2018-07-07T02:55:28.238Z,17.90
2018-07-07T02:56:28.225Z,17.94
2018-07-07T02:57:28.208Z,17.86
2018-07-07T02:58:28.197Z,17.88
2018-07-07T02:59:28.186Z,17.90
2018-07-07T03:00:28.177Z,17.79
2018-07-07T03:01:28.160Z,17.73
2018-07-07T03:02:28.147Z,17.72
2018-07-07T03:03:28.143Z,17.76
2018-07-07T03:04:28.117Z,17.76
2018-07-07T03:05:28.106Z,17.79
2018-07-07T03:06:28.099Z,17.81
2018-07-07T03:07:28.080Z,17.78
2018-07-07T03:08:28.068Z,17.76
2018-07-07T03:09:28.058Z,17.83
2018-07-07T03:10:28.044Z,17.87
2018-07-07T03:11:28.029Z,17.90
2018-07-07T03:12:28.011Z,17.84
2018-07-07T03:13:28.003Z,17.83
2018-07-07T03:14:27.984Z,17.87
2018-07-07T03:15:27.973Z,17.90
2018-07-07T03:16:27.957Z,17.88
2018-07-07T03:17:27.992Z,17.87
2018-07-07T03:18:27.930Z,17.87
2018-07-07T03:19:27.915Z,17.88
2018-07-07T03:20:27.905Z,17.87
2018-07-07T03:21:27.898Z,17.83
2018-07-07T03:22:27.883Z,17.71
2018-07-07T03:23:27.866Z,17.73
2018-07-07T03:24:27.855Z,17.71
2018-07-07T03:25:27.835Z,17.68
2018-07-07T03:26:27.830Z,17.71
2018-07-07T03:27:27.813Z,17.73
2018-07-07T03:28:27.966Z,17.68
2018-07-07T03:29:27.787Z,17.75
2018-07-07T03:30:27.778Z,17.72
2018-07-07T03:31:27.757Z,17.73
2018-07-07T03:32:27.746Z,17.68
2018-07-07T03:33:27.737Z,17.63
2018-07-07T03:34:27.717Z,17.59
2018-07-07T03:35:27.707Z,17.52
2018-07-07T03:36:27.740Z,17.49
2018-07-07T03:37:27.676Z,17.49
2018-07-07T03:38:27.717Z,17.63
2018-07-07T03:39:27.646Z,17.59
2018-07-07T03:40:27.636Z,17.52
2018-07-07T03:41:27.627Z,17.53
2018-07-07T03:42:27.756Z,17.49
2018-07-07T03:43:27.593Z,17.47
2018-07-07T03:44:27.636Z,17.57
2018-07-07T03:45:27.567Z,17.50
2018-07-07T03:46:27.656Z,17.49
2018-07-07T03:47:27.549Z,17.50
2018-07-07T03:48:27.526Z,17.41
2018-07-07T03:49:27.607Z,17.34
2018-07-07T03:50:27.518Z,17.38
2018-07-07T03:51:27.500Z,17.38
2018-07-07T03:52:27.520Z,17.37
2018-07-07T03:53:27.469Z,17.43
2018-07-07T03:54:27.495Z,17.46
2018-07-07T03:55:27.437Z,17.41
2018-07-07T03:56:27.492Z,17.46
2018-07-07T03:57:27.411Z,17.57
2018-07-07T03:58:27.396Z,17.46
2018-07-07T03:59:27.378Z,17.49
2018-07-07T04:00:27.369Z,17.39
2018-07-07T04:01:27.353Z,17.38
2018-07-07T04:02:27.338Z,17.38
2018-07-07T04:03:27.325Z,17.34
2018-07-07T04:04:27.311Z,17.28
2018-07-07T04:05:27.298Z,17.39
2018-07-07T04:06:27.289Z,17.32
2018-07-07T04:07:27.320Z,17.34
2018-07-07T04:08:27.256Z,17.34
2018-07-07T04:09:27.244Z,17.34
2018-07-07T04:10:27.229Z,17.31
2018-07-07T04:11:27.224Z,17.34
2018-07-07T04:12:27.207Z,17.28
2018-07-07T04:13:27.188Z,17.34
2018-07-07T04:14:27.174Z,17.34
2018-07-07T04:15:27.161Z,17.39
2018-07-07T04:16:27.148Z,17.35
2018-07-07T04:17:27.137Z,17.43
2018-07-07T04:18:27.117Z,17.35
2018-07-07T04:19:27.104Z,17.37
2018-07-07T04:20:27.098Z,17.35
2018-07-07T04:21:27.089Z,17.31
2018-07-07T04:22:27.064Z,17.37
2018-07-07T04:23:27.049Z,17.39
2018-07-07T04:24:27.041Z,17.37
2018-07-07T04:25:27.025Z,17.38
2018-07-07T04:26:27.012Z,17.31
2018-07-07T04:27:26.998Z,17.34
2018-07-07T04:28:26.980Z,17.32
2018-07-07T04:29:26.970Z,17.34
2018-07-07T04:30:26.954Z,17.43
2018-07-07T04:31:26.939Z,17.45
2018-07-07T04:32:26.928Z,17.38
2018-07-07T04:33:26.915Z,17.52
2018-07-07T04:34:26.901Z,17.41
2018-07-07T04:35:26.887Z,17.50
2018-07-07T04:36:26.877Z,17.49
2018-07-07T04:37:26.858Z,17.50
2018-07-07T04:38:26.845Z,17.57
2018-07-07T04:39:26.832Z,17.56
2018-07-07T04:41:26.806Z,17.50
2018-07-07T04:42:26.798Z,17.50
2018-07-07T04:43:26.781Z,17.56
2018-07-07T04:44:26.764Z,17.50
2018-07-07T04:45:26.750Z,17.53
2018-07-07T04:46:26.738Z,17.49
2018-07-07T04:47:26.734Z,17.50
2018-07-07T04:48:26.711Z,17.52
2018-07-07T04:49:26.698Z,17.62
2018-07-07T04:50:26.689Z,17.63
2018-07-07T04:51:26.676Z,17.59
2018-07-07T04:52:26.719Z,17.59
2018-07-07T04:53:26.645Z,17.62
2018-07-07T04:54:26.632Z,17.66
2018-07-07T04:55:26.618Z,17.72
2018-07-07T04:56:26.604Z,17.72
2018-07-07T04:57:26.629Z,17.69
2018-07-07T04:58:26.574Z,17.79
2018-07-07T04:59:26.623Z,17.83
2018-07-07T05:00:26.546Z,17.79
2018-07-07T05:01:26.536Z,17.78
2018-07-07T05:02:26.527Z,17.79
2018-07-07T05:03:26.514Z,17.76
2018-07-07T05:04:26.547Z,17.75
2018-07-07T05:05:26.482Z,17.79
2018-07-07T05:06:26.465Z,17.72
2018-07-07T05:07:26.604Z,17.71
2018-07-07T05:08:26.445Z,17.73
2018-07-07T05:09:26.582Z,17.68
2018-07-07T05:10:26.412Z,17.69
2018-07-07T05:11:26.412Z,17.71
2018-07-07T05:12:26.387Z,17.75
2018-07-07T05:13:26.377Z,17.72
2018-07-07T05:14:26.358Z,17.73
2018-07-07T05:15:26.439Z,17.73
2018-07-07T05:16:26.332Z,17.72
2018-07-07T05:17:26.329Z,17.86
2018-07-07T05:18:26.307Z,17.76
2018-07-07T05:19:26.295Z,17.79
2018-07-07T05:20:26.279Z,17.90
2018-07-07T05:21:26.272Z,17.87
2018-07-07T05:22:26.253Z,17.94
2018-07-07T05:23:26.241Z,17.90
2018-07-07T05:24:26.224Z,17.93
2018-07-07T05:25:26.261Z,17.88
2018-07-07T05:26:26.204Z,17.87
2018-07-07T05:27:26.237Z,17.84
2018-07-07T05:28:26.188Z,17.83
2018-07-07T05:29:26.158Z,17.87
2018-07-07T05:30:26.147Z,17.94
2018-07-07T05:31:26.138Z,17.87
2018-07-07T05:32:26.116Z,17.99
2018-07-07T05:33:26.108Z,17.97
2018-07-07T05:34:26.097Z,17.96
2018-07-07T05:35:26.077Z,18.03
2018-07-07T05:36:26.065Z,18.03
2018-07-07T05:37:26.053Z,18.17
2018-07-07T05:38:26.040Z,18.15
2018-07-07T05:39:26.027Z,18.20
2018-07-07T05:40:26.020Z,18.11
2018-07-07T05:41:25.999Z,18.15
2018-07-07T05:42:25.985Z,18.12
2018-07-07T05:43:25.972Z,18.13
2018-07-07T05:44:25.961Z,17.99
2018-07-07T05:45:25.951Z,17.99
2018-07-07T05:46:25.938Z,18.05
2018-07-07T05:47:25.927Z,18.01
2018-07-07T05:48:25.905Z,18.09
2018-07-07T05:49:25.897Z,18.15
2018-07-07T05:50:25.884Z,18.03
2018-07-07T05:51:25.868Z,17.83
2018-07-07T05:52:25.858Z,17.69
2018-07-07T05:53:25.840Z,17.68
2018-07-07T05:54:25.827Z,17.73
2018-07-07T05:55:25.816Z,17.81
2018-07-07T05:56:25.802Z,17.79
2018-07-07T05:57:25.804Z,17.81
2018-07-07T05:58:25.776Z,17.83
2018-07-07T05:59:25.761Z,17.69
2018-07-07T06:00:25.754Z,17.63
2018-07-07T06:01:25.736Z,17.53
2018-07-07T06:02:25.724Z,17.57
2018-07-07T06:03:25.709Z,17.63
2018-07-07T06:04:25.697Z,17.52
2018-07-07T06:05:25.682Z,17.72
2018-07-07T06:06:25.667Z,17.78
2018-07-07T06:07:25.656Z,17.83
2018-07-07T06:08:25.647Z,17.87
2018-07-07T06:09:25.627Z,18.08
2018-07-07T06:10:25.616Z,18.17
2018-07-07T06:11:25.609Z,18.20
2018-07-07T06:12:25.589Z,18.30
2018-07-07T06:13:25.576Z,18.39
2018-07-07T06:14:25.644Z,18.48
2018-07-07T06:15:25.548Z,18.41
2018-07-07T06:16:25.537Z,18.48
2018-07-07T06:17:25.526Z,18.54
2018-07-07T06:18:25.594Z,18.63
2018-07-07T06:19:25.517Z,18.56
2018-07-07T06:20:25.500Z,18.63
2018-07-07T06:21:25.470Z,18.61
2018-07-07T06:22:25.464Z,18.67
2018-07-07T06:23:25.445Z,18.56
2018-07-07T06:24:25.441Z,18.70
2018-07-07T06:25:25.417Z,18.67
2018-07-07T06:26:25.428Z,18.78
2018-07-07T06:27:25.398Z,18.74
2018-07-07T06:28:25.389Z,18.86
2018-07-07T06:29:25.374Z,18.89
2018-07-07T06:30:25.357Z,19.07
2018-07-07T06:31:25.340Z,18.98
2018-07-07T06:32:25.327Z,18.94
2018-07-07T06:33:25.315Z,18.97
2018-07-07T06:34:25.461Z,18.93
2018-07-07T06:35:25.289Z,19.05
2018-07-07T06:36:25.327Z,19.01
2018-07-07T06:37:25.313Z,19.04
2018-07-07T06:38:25.267Z,19.09
2018-07-07T06:39:25.252Z,19.08
2018-07-07T06:40:25.226Z,19.20
2018-07-07T06:41:25.212Z,19.22
2018-07-07T06:42:25.252Z,19.34
2018-07-07T06:43:25.187Z,19.27
2018-07-07T06:44:25.183Z,19.15
2018-07-07T06:45:25.163Z,19.01
2018-07-07T06:46:25.153Z,18.97
2018-07-07T06:47:25.137Z,18.89
2018-07-07T06:48:25.128Z,18.88
2018-07-07T06:49:25.119Z,19.01
2018-07-07T06:50:25.100Z,19.05
2018-07-07T06:51:25.097Z,19.12
2018-07-07T06:52:25.078Z,18.98
2018-07-07T06:53:25.068Z,19.08
2018-07-07T06:54:25.057Z,19.07
2018-07-07T06:55:25.040Z,19.17
2018-07-07T06:56:25.035Z,19.15
2018-07-07T06:57:25.019Z,19.26
2018-07-07T06:58:25.004Z,19.35
2018-07-07T06:59:24.992Z,19.49
2018-07-07T07:00:24.982Z,19.45
2018-07-07T07:01:24.966Z,19.52
2018-07-07T07:02:24.950Z,19.63
2018-07-07T07:03:24.993Z,19.64
2018-07-07T07:04:24.932Z,19.74
2018-07-07T07:05:24.914Z,19.87
2018-07-07T07:06:24.941Z,19.77
2018-07-07T07:07:24.900Z,19.63
2018-07-07T07:08:24.877Z,19.67
2018-07-07T07:09:24.869Z,19.72
2018-07-07T07:10:24.861Z,19.62
2018-07-07T07:11:24.854Z,19.77
2018-07-07T07:12:24.830Z,19.86
2018-07-07T07:13:24.826Z,19.77
2018-07-07T07:14:24.807Z,19.86
2018-07-07T07:15:24.793Z,19.94
2018-07-07T07:16:24.778Z,19.93
2018-07-07T07:17:24.769Z,20.09
2018-07-07T07:18:24.758Z,20.15
2018-07-07T07:19:24.744Z,20.15
2018-07-07T07:20:24.741Z,20.19
2018-07-07T07:21:24.717Z,20.17
2018-07-07T07:22:24.709Z,20.14
2018-07-07T07:23:24.694Z,20.17
2018-07-07T07:24:24.691Z,20.25
2018-07-07T07:25:24.669Z,20.25
2018-07-07T07:26:24.657Z,20.37
2018-07-07T07:27:24.642Z,20.33
2018-07-07T07:28:24.631Z,20.33
2018-07-07T07:29:24.634Z,20.48
2018-07-07T07:30:24.618Z,20.56
2018-07-07T07:31:24.617Z,20.58
2018-07-07T07:32:24.587Z,20.67
2018-07-07T07:33:24.576Z,20.70
2018-07-07T07:34:24.592Z,20.64
2018-07-07T07:35:24.561Z,20.73
2018-07-07T07:36:24.536Z,20.86
2018-07-07T07:37:24.526Z,20.95
2018-07-07T07:38:24.513Z,21.00
2018-07-07T07:39:24.521Z,21.07
2018-07-07T07:40:24.496Z,21.10
2018-07-07T07:41:24.486Z,21.14
2018-07-07T07:42:24.467Z,21.10
2018-07-07T07:43:24.471Z,21.16
2018-07-07T07:44:24.452Z,21.11
2018-07-07T07:45:24.439Z,21.13
2018-07-07T07:46:24.421Z,21.25
2018-07-07T07:47:24.419Z,21.32
2018-07-07T07:48:24.396Z,21.35
2018-07-07T07:49:24.387Z,21.37
2018-07-07T07:50:24.376Z,21.53
2018-07-07T07:51:24.368Z,21.63
2018-07-07T07:52:24.358Z,21.74
2018-07-07T07:53:24.349Z,21.80
2018-07-07T07:54:24.332Z,21.88
2018-07-07T07:55:24.338Z,21.96
2018-07-07T07:56:24.313Z,21.93
2018-07-07T07:57:24.298Z,21.93
2018-07-07T07:58:24.287Z,21.90
2018-07-07T07:59:24.281Z,21.93
2018-07-07T08:00:24.267Z,21.73
2018-07-07T08:01:24.268Z,21.75
2018-07-07T08:02:24.245Z,21.75
2018-07-07T08:03:24.232Z,21.75
2018-07-07T08:04:24.226Z,21.84
2018-07-07T08:05:24.213Z,22.01
2018-07-07T08:06:24.197Z,22.25
2018-07-07T08:07:24.185Z,22.34
2018-07-07T08:08:24.177Z,22.46
2018-07-07T08:09:24.164Z,22.51
2018-07-07T08:10:24.156Z,22.53
2018-07-07T08:11:24.146Z,22.59
2018-07-07T08:12:24.145Z,22.71
2018-07-07T08:13:24.120Z,22.56
2018-07-07T08:14:24.117Z,22.62
2018-07-07T08:15:24.103Z,22.64
2018-07-07T08:16:24.092Z,22.51
2018-07-07T08:17:24.088Z,22.41
2018-07-07T08:18:24.078Z,22.11
2018-07-07T08:19:24.057Z,22.23
2018-07-07T08:20:24.047Z,22.30
2018-07-07T08:21:24.037Z,22.33
2018-07-07T08:22:24.030Z,22.41
2018-07-07T08:23:24.018Z,22.44
2018-07-07T08:24:24.014Z,22.52
2018-07-07T08:25:24.007Z,22.61
2018-07-07T08:26:23.987Z,22.61
2018-07-07T08:27:23.974Z,22.76
2018-07-07T08:28:24.001Z,22.70
2018-07-07T08:29:23.953Z,22.78
2018-07-07T08:30:23.957Z,22.67
2018-07-07T08:31:23.940Z,22.61
2018-07-07T08:32:23.928Z,22.59
2018-07-07T08:33:23.922Z,22.58
2018-07-07T08:34:24.048Z,22.76
2018-07-07T08:35:23.894Z,22.88
2018-07-07T08:36:23.940Z,22.76
2018-07-07T08:37:23.870Z,22.86
2018-07-07T08:38:23.976Z,22.95
2018-07-07T08:39:23.858Z,23.08
2018-07-07T08:40:23.851Z,23.25
2018-07-07T08:41:23.833Z,23.34
2018-07-07T08:42:23.876Z,23.41
2018-07-07T08:43:23.813Z,23.61
2018-07-07T08:44:23.855Z,23.67
2018-07-07T08:45:23.793Z,23.66
2018-07-07T08:46:23.808Z,23.66
2018-07-07T08:47:23.779Z,23.56
2018-07-07T08:48:23.808Z,23.48
2018-07-07T08:49:23.835Z,23.60
2018-07-07T08:50:23.751Z,23.70
2018-07-07T08:51:23.741Z,23.73
2018-07-07T08:52:23.732Z,23.84
2018-07-07T08:53:23.709Z,23.89
2018-07-07T08:54:23.754Z,23.96
2018-07-07T08:55:23.698Z,23.96
2018-07-07T08:56:23.689Z,24.03
2018-07-07T08:57:23.678Z,24.10
2018-07-07T08:58:23.660Z,24.13
2018-07-07T08:59:23.652Z,24.34
2018-07-07T09:00:23.647Z,24.43
2018-07-07T09:01:23.639Z,24.65
2018-07-07T09:02:23.625Z,24.65
2018-07-07T09:03:23.613Z,24.68
2018-07-07T09:04:23.606Z,24.65
2018-07-07T09:05:23.593Z,24.47
2018-07-07T09:06:23.585Z,24.51
2018-07-07T09:07:23.584Z,24.53
2018-07-07T09:08:23.567Z,24.60
2018-07-07T09:09:23.554Z,24.70
2018-07-07T09:10:23.550Z,24.63
2018-07-07T09:11:23.548Z,24.78
2018-07-07T09:12:23.528Z,24.78
2018-07-07T09:13:23.518Z,24.78
2018-07-07T09:14:23.537Z,24.70
2018-07-07T09:15:23.500Z,24.45
2018-07-07T09:16:23.487Z,24.58
2018-07-07T09:17:23.493Z,24.55
2018-07-07T09:18:23.478Z,24.53
2018-07-07T09:19:23.470Z,24.53
2018-07-07T09:20:23.468Z,24.62
2018-07-07T09:21:23.489Z,24.66
2018-07-07T09:22:23.436Z,24.66
2018-07-07T09:23:23.433Z,24.70
2018-07-07T09:24:23.421Z,24.81
2018-07-07T09:25:23.416Z,24.93
2018-07-07T09:26:23.407Z,24.97
2018-07-07T09:27:23.388Z,24.84
2018-07-07T09:28:23.387Z,24.93
2018-07-07T09:29:23.373Z,24.96
2018-07-07T09:30:23.375Z,25.01
2018-07-07T09:31:23.359Z,25.09
2018-07-07T09:32:23.346Z,25.30
2018-07-07T09:33:23.335Z,25.21
2018-07-07T09:34:23.329Z,25.19
2018-07-07T09:35:23.324Z,25.28
2018-07-07T09:36:23.307Z,25.23
2018-07-07T09:37:23.304Z,25.19
2018-07-07T09:38:23.290Z,25.31
2018-07-07T09:39:23.284Z,25.26
2018-07-07T09:40:23.274Z,25.40
2018-07-07T09:41:23.270Z,25.56
2018-07-07T09:42:23.256Z,25.55
2018-07-07T09:43:23.246Z,25.66
2018-07-07T09:44:23.252Z,25.83
2018-07-07T09:45:23.227Z,25.86
2018-07-07T09:46:23.231Z,25.93
2018-07-07T09:47:23.212Z,25.93
2018-07-07T09:48:23.210Z,25.93
2018-07-07T09:49:23.197Z,25.98
2018-07-07T09:50:23.188Z,25.90
2018-07-07T09:51:23.178Z,25.92
2018-07-07T09:52:23.175Z,25.86
2018-07-07T09:53:23.166Z,25.89
2018-07-07T09:54:23.158Z,25.70
2018-07-07T09:55:23.147Z,25.67
2018-07-07T09:56:23.187Z,25.59
2018-07-07T09:57:23.127Z,25.46
2018-07-07T09:58:23.116Z,25.48
2018-07-07T09:59:23.117Z,25.46
2018-07-07T10:00:23.101Z,25.48
2018-07-07T10:01:23.097Z,25.45
2018-07-07T10:02:23.088Z,25.59
2018-07-07T10:03:23.076Z,25.67
2018-07-07T10:04:23.067Z,25.93
2018-07-07T10:05:23.065Z,26.00
2018-07-07T10:06:23.059Z,26.10
2018-07-07T10:07:23.073Z,26.05
2018-07-07T10:08:23.042Z,26.07
2018-07-07T10:09:23.030Z,26.00
2018-07-07T10:10:23.018Z,26.03
2018-07-07T10:11:23.011Z,26.00
2018-07-07T10:12:23.007Z,26.03
2018-07-07T10:13:23.029Z,26.10
2018-07-07T10:14:22.992Z,26.10
2018-07-07T10:15:22.983Z,26.15
2018-07-07T10:16:22.979Z,26.23
2018-07-07T10:17:22.968Z,26.53
2018-07-07T10:18:22.971Z,26.70
2018-07-07T10:19:22.959Z,26.82
2018-07-07T10:20:22.998Z,27.04
2018-07-07T10:21:22.936Z,27.22
2018-07-07T10:22:22.970Z,27.26
2018-07-07T10:23:22.923Z,27.27
2018-07-07T10:24:23.015Z,27.61
2018-07-07T10:25:22.905Z,27.82
2018-07-07T10:26:22.997Z,28.07
2018-07-07T10:27:22.894Z,28.35
2018-07-07T10:28:22.886Z,28.66
2018-07-07T10:29:22.887Z,28.91
2018-07-07T10:30:22.875Z,29.17
2018-07-07T10:31:22.868Z,29.47
2018-07-07T10:32:22.868Z,29.62
2018-07-07T10:33:22.856Z,29.50
2018-07-07T10:34:22.849Z,28.68
2018-07-07T10:35:22.847Z,28.56
2018-07-07T10:36:22.840Z,28.66
2018-07-07T10:37:22.837Z,28.57
2018-07-07T10:38:22.822Z,28.52
2018-07-07T10:39:22.816Z,28.37
2018-07-07T10:40:22.807Z,28.09
2018-07-07T10:41:22.804Z,28.15
2018-07-07T10:42:22.795Z,28.10
2018-07-07T10:43:22.788Z,28.43
2018-07-07T10:44:22.782Z,28.40
2018-07-07T10:45:22.861Z,28.62
2018-07-07T10:46:22.764Z,28.54
2018-07-07T10:47:22.797Z,28.43
2018-07-07T10:48:22.768Z,28.35
2018-07-07T10:49:22.748Z,28.28
2018-07-07T10:50:22.737Z,28.13
2018-07-07T10:51:22.737Z,28.17
2018-07-07T10:52:22.724Z,28.20
2018-07-07T10:53:22.723Z,28.13
2018-07-07T10:54:22.710Z,27.97
2018-07-07T10:55:22.710Z,28.01
2018-07-07T10:56:22.694Z,27.80
2018-07-07T10:57:22.749Z,27.75
2018-07-07T10:58:22.687Z,27.80
2018-07-07T10:59:22.677Z,27.82
2018-07-07T11:00:22.667Z,27.88
2018-07-07T11:01:22.712Z,27.87
2018-07-07T11:02:22.659Z,27.78
2018-07-07T11:03:22.689Z,27.78
2018-07-07T11:04:22.760Z,27.79
2018-07-07T11:05:22.637Z,27.64
2018-07-07T11:06:22.628Z,27.42
2018-07-07T11:07:22.674Z,27.00
2018-07-07T11:08:22.619Z,26.82
2018-07-07T11:09:22.608Z,26.76
2018-07-07T11:10:22.602Z,26.85
2018-07-07T11:11:22.592Z,26.89
2018-07-07T11:12:22.592Z,27.03
2018-07-07T11:13:22.576Z,26.98
2018-07-07T11:14:22.573Z,27.04
2018-07-07T11:15:22.572Z,27.01
2018-07-07T11:16:22.563Z,27.23
2018-07-07T11:17:22.548Z,27.37
2018-07-07T11:18:22.543Z,27.44
2018-07-07T11:19:22.538Z,27.54
2018-07-07T11:20:22.541Z,27.63
2018-07-07T11:21:22.530Z,27.61
2018-07-07T11:22:22.521Z,27.58
2018-07-07T11:23:22.519Z,27.58
2018-07-07T11:24:22.499Z,27.64
2018-07-07T11:25:22.496Z,27.64
2018-07-07T11:26:22.489Z,27.52
2018-07-07T11:27:22.481Z,27.64
2018-07-07T11:28:22.468Z,27.66
2018-07-07T11:29:22.476Z,27.79
2018-07-07T11:30:22.471Z,27.94
2018-07-07T11:31:22.454Z,27.61
2018-07-07T11:32:22.449Z,27.30
2018-07-07T11:33:22.439Z,27.41
2018-07-07T11:34:22.433Z,27.44
2018-07-07T11:35:22.425Z,27.57
2018-07-07T11:36:22.487Z,27.64
2018-07-07T11:37:22.405Z,27.78
2018-07-07T11:38:22.409Z,27.83
2018-07-07T11:39:22.393Z,27.70
2018-07-07T11:40:22.403Z,27.69
2018-07-07T11:41:22.380Z,27.49
2018-07-07T11:42:22.457Z,27.57
2018-07-07T11:43:22.375Z,27.37
2018-07-07T11:44:22.361Z,27.58
2018-07-07T11:45:22.347Z,27.66
2018-07-07T11:46:22.349Z,27.75
2018-07-07T11:47:22.340Z,27.94
2018-07-07T11:48:22.338Z,27.95
2018-07-07T11:49:22.335Z,27.88
2018-07-07T11:50:22.409Z,27.80
2018-07-07T11:51:22.326Z,27.87
2018-07-07T11:52:22.303Z,27.82
2018-07-07T11:53:22.300Z,27.98
2018-07-07T11:54:22.294Z,28.10
2018-07-07T11:55:22.290Z,28.07
2018-07-07T11:56:22.282Z,28.00
2018-07-07T11:57:22.365Z,28.15
2018-07-07T11:58:22.270Z,28.10
2018-07-07T11:59:22.256Z,28.30
2018-07-07T12:00:22.246Z,28.31
2018-07-07T12:01:22.237Z,28.34
2018-07-07T12:02:22.237Z,28.34
2018-07-07T12:03:22.225Z,28.54
2018-07-07T12:04:22.263Z,28.38
2018-07-07T12:05:22.220Z,28.16
2018-07-07T12:06:22.257Z,28.05
2018-07-07T12:07:22.198Z,28.05
2018-07-07T12:08:22.253Z,28.20
2018-07-07T12:09:22.184Z,28.20
2018-07-07T12:10:22.192Z,28.34
2018-07-07T12:11:22.305Z,28.16
2018-07-07T12:12:22.167Z,28.22
2018-07-07T12:13:22.158Z,28.13
2018-07-07T12:14:22.158Z,28.15
2018-07-07T12:15:22.150Z,28.07
2018-07-07T12:16:22.144Z,28.07
2018-07-07T12:17:22.208Z,28.07
2018-07-07T12:18:22.128Z,28.09
2018-07-07T12:19:22.126Z,28.07
2018-07-07T12:20:22.116Z,27.72
2018-07-07T12:21:22.106Z,27.68
2018-07-07T12:22:22.099Z,27.70
2018-07-07T12:23:22.098Z,27.69
2018-07-07T12:24:22.084Z,27.60
2018-07-07T12:25:22.084Z,27.64
2018-07-07T12:26:22.078Z,27.90
2018-07-07T12:27:22.067Z,27.90
2018-07-07T12:28:22.057Z,28.10
2018-07-07T12:29:22.054Z,28.07
2018-07-07T12:30:22.049Z,28.20
2018-07-07T12:31:22.068Z,28.37
2018-07-07T12:32:22.034Z,28.49
2018-07-07T12:33:22.024Z,28.65
2018-07-07T12:34:22.022Z,28.65
2018-07-07T12:35:22.017Z,28.80
2018-07-07T12:36:22.008Z,28.80
2018-07-07T12:37:22.000Z,28.83
2018-07-07T12:38:21.994Z,28.84
2018-07-07T12:39:21.984Z,28.86
2018-07-07T12:40:22.000Z,28.77
2018-07-07T12:41:21.985Z,28.68
2018-07-07T12:42:21.975Z,28.64
2018-07-07T12:43:21.961Z,28.74
2018-07-07T12:44:21.955Z,28.56
2018-07-07T12:45:21.948Z,28.16
2018-07-07T12:46:21.939Z,27.88
2018-07-07T12:47:21.949Z,27.41
2018-07-07T12:48:21.928Z,27.45
2018-07-07T12:49:21.922Z,27.72
2018-07-07T12:50:21.915Z,27.80
2018-07-07T12:51:21.916Z,27.87
2018-07-07T12:52:21.899Z,28.09
2018-07-07T12:53:21.899Z,28.06